sensor_id;sensor_type;location;lat;lon;timestamp;P1;durP1;ratioP1;P2;durP2;ratioP2
11531;SDS011;5822;51.000;5.874;2022-08-04T00:00:08;26.35;;;24.20;;
11531;SDS011;5822;51.000;5.874;2022-08-04T00:05:06;25.23;;;22.92;;
11531;SDS011;5822;51.000;5.874;2022-08-04T00:10:08;23.15;;;20.90;;
11531;SDS011;5822;51.000;5.874;2022-08-04T00:12:40;22.38;;;20.35;;
11531;SDS011;5822;51.000;5.874;2022-08-04T00:15:13;25.17;;;23.02;;
11531;SDS011;5822;51.000;5.874;2022-08-04T00:17:42;22.83;;;20.80;;
11531;SDS011;5822;51.000;5.874;2022-08-04T00:20:10;23.48;;;21.38;;
11531;SDS011;5822;51.000;5.874;2022-08-04T00:22:41;24.65;;;22.58;;
11531;SDS011;5822;51.000;5.874;2022-08-04T00:25:10;23.35;;;21.25;;
11531;SDS011;5822;51.000;5.874;2022-08-04T00:27:36;24.35;;;22.25;;
11531;SDS011;5822;51.000;5.874;2022-08-04T00:30:03;23.05;;;20.90;;
11531;SDS011;5822;51.000;5.874;2022-08-04T00:32:30;23.50;;;21.10;;
11531;SDS011;5822;51.000;5.874;2022-08-04T00:34:56;23.27;;;20.92;;
11531;SDS011;5822;51.000;5.874;2022-08-04T00:37:24;22.38;;;20.38;;
11531;SDS011;5822;51.000;5.874;2022-08-04T00:39:50;22.67;;;20.42;;
11531;SDS011;5822;51.000;5.874;2022-08-04T00:50:32;22.73;;;20.65;;
11531;SDS011;5822;51.000;5.874;2022-08-04T00:53:08;22.90;;;20.83;;
11531;SDS011;5822;51.000;5.874;2022-08-04T00:55:42;22.88;;;20.77;;
11531;SDS011;5822;51.000;5.874;2022-08-04T01:20:23;24.00;;;21.90;;
11531;SDS011;5822;51.000;5.874;2022-08-04T01:31:34;26.58;;;24.38;;
11531;SDS011;5822;51.000;5.874;2022-08-04T01:34:15;26.33;;;23.83;;
11531;SDS011;5822;51.000;5.874;2022-08-04T01:36:46;24.85;;;22.55;;
11531;SDS011;5822;51.000;5.874;2022-08-04T01:39:21;24.00;;;21.90;;
11531;SDS011;5822;51.000;5.874;2022-08-04T01:42:05;25.30;;;23.05;;
11531;SDS011;5822;51.000;5.874;2022-08-04T01:44:32;25.73;;;23.23;;
11531;SDS011;5822;51.000;5.874;2022-08-04T01:47:00;25.50;;;23.30;;
11531;SDS011;5822;51.000;5.874;2022-08-04T01:49:27;26.38;;;24.20;;
11531;SDS011;5822;51.000;5.874;2022-08-04T01:51:55;28.40;;;25.45;;
11531;SDS011;5822;51.000;5.874;2022-08-04T01:54:21;26.52;;;24.33;;
11531;SDS011;5822;51.000;5.874;2022-08-04T01:56:48;26.45;;;24.35;;
11531;SDS011;5822;51.000;5.874;2022-08-04T01:59:16;24.55;;;22.40;;
11531;SDS011;5822;51.000;5.874;2022-08-04T02:01:43;24.75;;;22.65;;
11531;SDS011;5822;51.000;5.874;2022-08-04T02:04:18;23.98;;;21.67;;
11531;SDS011;5822;51.000;5.874;2022-08-04T02:09:36;24.45;;;22.27;;
11531;SDS011;5822;51.000;5.874;2022-08-04T02:12:04;26.23;;;23.92;;
11531;SDS011;5822;51.000;5.874;2022-08-04T02:14:58;26.80;;;24.60;;
11531;SDS011;5822;51.000;5.874;2022-08-04T02:17:29;27.45;;;25.08;;
11531;SDS011;5822;51.000;5.874;2022-08-04T02:23:09;25.02;;;22.83;;
11531;SDS011;5822;51.000;5.874;2022-08-04T02:25:55;24.42;;;22.27;;
11531;SDS011;5822;51.000;5.874;2022-08-04T02:28:35;24.50;;;22.40;;
11531;SDS011;5822;51.000;5.874;2022-08-04T02:31:20;24.58;;;22.48;;
11531;SDS011;5822;51.000;5.874;2022-08-04T02:34:10;24.85;;;22.70;;
11531;SDS011;5822;51.000;5.874;2022-08-04T02:36:56;26.27;;;23.92;;
11531;SDS011;5822;51.000;5.874;2022-08-04T02:39:24;27.00;;;24.60;;
11531;SDS011;5822;51.000;5.874;2022-08-04T02:41:55;27.05;;;24.55;;
11531;SDS011;5822;51.000;5.874;2022-08-04T02:44:24;25.98;;;23.58;;
11531;SDS011;5822;51.000;5.874;2022-08-04T02:46:52;24.23;;;22.00;;
11531;SDS011;5822;51.000;5.874;2022-08-04T02:49:22;24.33;;;22.05;;
11531;SDS011;5822;51.000;5.874;2022-08-04T02:51:52;25.45;;;23.15;;
11531;SDS011;5822;51.000;5.874;2022-08-04T02:54:22;27.60;;;25.00;;
11531;SDS011;5822;51.000;5.874;2022-08-04T02:56:50;26.70;;;24.27;;
11531;SDS011;5822;51.000;5.874;2022-08-04T02:59:17;27.00;;;24.60;;
11531;SDS011;5822;51.000;5.874;2022-08-04T03:01:47;27.58;;;25.27;;
11531;SDS011;5822;51.000;5.874;2022-08-04T03:04:15;26.55;;;24.35;;
11531;SDS011;5822;51.000;5.874;2022-08-04T03:15:20;30.23;;;27.65;;
11531;SDS011;5822;51.000;5.874;2022-08-04T03:37:10;27.75;;;25.45;;
11531;SDS011;5822;51.000;5.874;2022-08-04T03:57:38;26.52;;;24.23;;
11531;SDS011;5822;51.000;5.874;2022-08-04T04:00:30;27.00;;;24.58;;
11531;SDS011;5822;51.000;5.874;2022-08-04T04:03:36;28.47;;;25.97;;
11531;SDS011;5822;51.000;5.874;2022-08-04T04:06:21;28.08;;;25.67;;
11531;SDS011;5822;51.000;5.874;2022-08-04T04:23:14;27.70;;;25.25;;
11531;SDS011;5822;51.000;5.874;2022-08-04T04:37:06;27.95;;;25.48;;
11531;SDS011;5822;51.000;5.874;2022-08-04T04:46:04;28.30;;;25.90;;
11531;SDS011;5822;51.000;5.874;2022-08-04T04:54:36;28.13;;;25.75;;
11531;SDS011;5822;51.000;5.874;2022-08-04T04:57:24;27.30;;;25.00;;
11531;SDS011;5822;51.000;5.874;2022-08-04T04:59:56;27.00;;;24.67;;
11531;SDS011;5822;51.000;5.874;2022-08-04T05:02:35;30.63;;;27.92;;
11531;SDS011;5822;51.000;5.874;2022-08-04T05:16:24;34.72;;;31.98;;
11531;SDS011;5822;51.000;5.874;2022-08-04T05:21:50;33.10;;;30.60;;
11531;SDS011;5822;51.000;5.874;2022-08-04T05:24:23;33.17;;;30.58;;
11531;SDS011;5822;51.000;5.874;2022-08-04T05:26:51;33.72;;;30.98;;
11531;SDS011;5822;51.000;5.874;2022-08-04T05:29:30;34.55;;;31.75;;
11531;SDS011;5822;51.000;5.874;2022-08-04T05:32:06;35.45;;;32.72;;
11531;SDS011;5822;51.000;5.874;2022-08-04T05:34:56;36.35;;;33.25;;
11531;SDS011;5822;51.000;5.874;2022-08-04T05:37:26;141.40;;;50.05;;
11531;SDS011;5822;51.000;5.874;2022-08-04T05:40:02;168.25;;;62.25;;
11531;SDS011;5822;51.000;5.874;2022-08-04T05:42:35;321.75;;;101.28;;
11531;SDS011;5822;51.000;5.874;2022-08-04T05:45:02;170.82;;;87.68;;
11531;SDS011;5822;51.000;5.874;2022-08-04T05:47:30;366.15;;;119.45;;
11531;SDS011;5822;51.000;5.874;2022-08-04T05:49:57;267.27;;;113.93;;
11531;SDS011;5822;51.000;5.874;2022-08-04T05:52:25;150.90;;;79.25;;
11531;SDS011;5822;51.000;5.874;2022-08-04T05:54:51;122.45;;;66.10;;
11531;SDS011;5822;51.000;5.874;2022-08-04T05:57:17;96.35;;;85.90;;
11531;SDS011;5822;51.000;5.874;2022-08-04T05:59:44;80.05;;;61.55;;
11531;SDS011;5822;51.000;5.874;2022-08-04T06:02:11;67.43;;;60.80;;
11531;SDS011;5822;51.000;5.874;2022-08-04T06:04:41;39.55;;;35.60;;
11531;SDS011;5822;51.000;5.874;2022-08-04T06:07:09;53.53;;;37.38;;
11531;SDS011;5822;51.000;5.874;2022-08-04T06:09:38;50.28;;;36.72;;
11531;SDS011;5822;51.000;5.874;2022-08-04T06:12:13;51.53;;;46.05;;
11531;SDS011;5822;51.000;5.874;2022-08-04T06:14:46;63.20;;;58.13;;
11531;SDS011;5822;51.000;5.874;2022-08-04T06:17:14;58.47;;;53.85;;
11531;SDS011;5822;51.000;5.874;2022-08-04T06:19:46;50.60;;;46.80;;
11531;SDS011;5822;51.000;5.874;2022-08-04T06:22:14;54.65;;;50.55;;
11531;SDS011;5822;51.000;5.874;2022-08-04T06:24:41;32.03;;;29.42;;
11531;SDS011;5822;51.000;5.874;2022-08-04T06:27:12;53.50;;;49.10;;
11531;SDS011;5822;51.000;5.874;2022-08-04T06:29:38;57.65;;;52.47;;
11531;SDS011;5822;51.000;5.874;2022-08-04T06:32:06;59.00;;;54.40;;
11531;SDS011;5822;51.000;5.874;2022-08-04T06:34:53;36.38;;;32.55;;
11531;SDS011;5822;51.000;5.874;2022-08-04T06:37:21;36.70;;;33.00;;
11531;SDS011;5822;51.000;5.874;2022-08-04T06:39:49;44.37;;;40.00;;
11531;SDS011;5822;51.000;5.874;2022-08-04T06:42:16;48.90;;;44.70;;
11531;SDS011;5822;51.000;5.874;2022-08-04T06:44:48;48.90;;;44.70;;
11531;SDS011;5822;51.000;5.874;2022-08-04T06:47:18;54.58;;;50.38;;
11531;SDS011;5822;51.000;5.874;2022-08-04T06:49:46;29.17;;;26.48;;
11531;SDS011;5822;51.000;5.874;2022-08-04T06:52:14;29.23;;;26.90;;
11531;SDS011;5822;51.000;5.874;2022-08-04T06:54:47;30.25;;;27.25;;
11531;SDS011;5822;51.000;5.874;2022-08-04T06:57:17;40.35;;;37.15;;
11531;SDS011;5822;51.000;5.874;2022-08-04T06:59:46;36.08;;;33.13;;
11531;SDS011;5822;51.000;5.874;2022-08-04T07:02:17;40.45;;;37.10;;
11531;SDS011;5822;51.000;5.874;2022-08-04T07:04:47;42.38;;;39.10;;
11531;SDS011;5822;51.000;5.874;2022-08-04T07:07:13;32.92;;;29.90;;
11531;SDS011;5822;51.000;5.874;2022-08-04T07:09:40;38.50;;;35.00;;
11531;SDS011;5822;51.000;5.874;2022-08-04T07:12:06;29.05;;;26.45;;
11531;SDS011;5822;51.000;5.874;2022-08-04T07:14:33;36.55;;;32.83;;
11531;SDS011;5822;51.000;5.874;2022-08-04T07:17:03;38.47;;;35.13;;
11531;SDS011;5822;51.000;5.874;2022-08-04T07:19:31;40.67;;;37.78;;
11531;SDS011;5822;51.000;5.874;2022-08-04T07:21:59;52.42;;;48.50;;
11531;SDS011;5822;51.000;5.874;2022-08-04T07:24:29;42.10;;;38.65;;
11531;SDS011;5822;51.000;5.874;2022-08-04T07:26:55;42.33;;;38.47;;
11531;SDS011;5822;51.000;5.874;2022-08-04T07:29:21;30.38;;;27.27;;
11531;SDS011;5822;51.000;5.874;2022-08-04T07:31:47;36.22;;;28.52;;
11531;SDS011;5822;51.000;5.874;2022-08-04T07:34:13;31.65;;;28.65;;
11531;SDS011;5822;51.000;5.874;2022-08-04T07:36:39;37.63;;;34.30;;
11531;SDS011;5822;51.000;5.874;2022-08-04T07:39:05;37.85;;;35.15;;
11531;SDS011;5822;51.000;5.874;2022-08-04T07:41:31;31.98;;;29.30;;
11531;SDS011;5822;51.000;5.874;2022-08-04T07:43:57;34.30;;;31.63;;
11531;SDS011;5822;51.000;5.874;2022-08-04T07:46:23;36.25;;;33.65;;
11531;SDS011;5822;51.000;5.874;2022-08-04T07:48:49;43.83;;;40.65;;
11531;SDS011;5822;51.000;5.874;2022-08-04T07:51:15;32.67;;;30.00;;
11531;SDS011;5822;51.000;5.874;2022-08-04T07:53:41;33.00;;;30.40;;
11531;SDS011;5822;51.000;5.874;2022-08-04T07:56:08;34.47;;;31.90;;
11531;SDS011;5822;51.000;5.874;2022-08-04T07:58:34;39.38;;;35.97;;
11531;SDS011;5822;51.000;5.874;2022-08-04T08:01:00;43.78;;;40.42;;
11531;SDS011;5822;51.000;5.874;2022-08-04T08:03:26;43.03;;;40.05;;
11531;SDS011;5822;51.000;5.874;2022-08-04T08:05:52;47.40;;;44.30;;
11531;SDS011;5822;51.000;5.874;2022-08-04T08:08:18;34.30;;;31.52;;
11531;SDS011;5822;51.000;5.874;2022-08-04T08:10:46;34.25;;;31.58;;
11531;SDS011;5822;51.000;5.874;2022-08-04T08:13:12;34.50;;;31.90;;
11531;SDS011;5822;51.000;5.874;2022-08-04T08:15:39;42.25;;;38.85;;
11531;SDS011;5822;51.000;5.874;2022-08-04T08:18:07;46.08;;;42.80;;
11531;SDS011;5822;51.000;5.874;2022-08-04T08:20:33;50.70;;;47.20;;
11531;SDS011;5822;51.000;5.874;2022-08-04T08:22:59;47.42;;;44.08;;
11531;SDS011;5822;51.000;5.874;2022-08-04T08:25:26;49.72;;;45.92;;
11531;SDS011;5822;51.000;5.874;2022-08-04T08:27:53;47.72;;;44.05;;
11531;SDS011;5822;51.000;5.874;2022-08-04T08:30:19;34.90;;;32.08;;
11531;SDS011;5822;51.000;5.874;2022-08-04T08:32:44;33.35;;;30.65;;
11531;SDS011;5822;51.000;5.874;2022-08-04T08:35:10;33.80;;;30.83;;
11531;SDS011;5822;51.000;5.874;2022-08-04T08:37:51;40.25;;;37.22;;
11531;SDS011;5822;51.000;5.874;2022-08-04T08:54:30;61.05;;;56.95;;
11531;SDS011;5822;51.000;5.874;2022-08-04T08:57:19;59.60;;;55.78;;
11531;SDS011;5822;51.000;5.874;2022-08-04T09:02:48;59.33;;;55.58;;
11531;SDS011;5822;51.000;5.874;2022-08-04T09:11:15;49.45;;;46.05;;
11531;SDS011;5822;51.000;5.874;2022-08-04T09:13:51;54.67;;;51.00;;
11531;SDS011;5822;51.000;5.874;2022-08-04T09:16:30;55.80;;;52.00;;
11531;SDS011;5822;51.000;5.874;2022-08-04T09:19:05;56.17;;;52.58;;
11531;SDS011;5822;51.000;5.874;2022-08-04T09:27:23;56.50;;;52.80;;
11531;SDS011;5822;51.000;5.874;2022-08-04T09:30:11;56.13;;;52.22;;
11531;SDS011;5822;51.000;5.874;2022-08-04T09:32:45;55.78;;;52.17;;
11531;SDS011;5822;51.000;5.874;2022-08-04T09:44:14;50.92;;;47.42;;
11531;SDS011;5822;51.000;5.874;2022-08-04T09:46:49;53.40;;;49.92;;
11531;SDS011;5822;51.000;5.874;2022-08-04T09:49:26;47.08;;;43.40;;
11531;SDS011;5822;51.000;5.874;2022-08-04T09:52:07;49.88;;;46.22;;
11531;SDS011;5822;51.000;5.874;2022-08-04T09:55:11;243.18;;;135.95;;
11531;SDS011;5822;51.000;5.874;2022-08-04T09:57:59;62.05;;;57.45;;
11531;SDS011;5822;51.000;5.874;2022-08-04T10:00:35;58.28;;;52.90;;
11531;SDS011;5822;51.000;5.874;2022-08-04T10:03:09;54.40;;;50.60;;
11531;SDS011;5822;51.000;5.874;2022-08-04T10:14:20;54.03;;;49.83;;
11531;SDS011;5822;51.000;5.874;2022-08-04T10:17:07;44.85;;;41.38;;
11531;SDS011;5822;51.000;5.874;2022-08-04T10:23:10;43.17;;;40.17;;
11531;SDS011;5822;51.000;5.874;2022-08-04T10:28:21;49.80;;;46.40;;
11531;SDS011;5822;51.000;5.874;2022-08-04T10:30:51;51.10;;;47.60;;
11531;SDS011;5822;51.000;5.874;2022-08-04T10:33:29;53.28;;;49.85;;
11531;SDS011;5822;51.000;5.874;2022-08-04T10:36:03;55.13;;;51.42;;
11531;SDS011;5822;51.000;5.874;2022-08-04T10:38:35;54.50;;;50.85;;
11531;SDS011;5822;51.000;5.874;2022-08-04T10:41:09;55.90;;;51.85;;
11531;SDS011;5822;51.000;5.874;2022-08-04T10:43:43;54.92;;;51.22;;
11531;SDS011;5822;51.000;5.874;2022-08-04T10:46:23;52.58;;;49.22;;
11531;SDS011;5822;51.000;5.874;2022-08-04T10:48:55;54.85;;;50.78;;
11531;SDS011;5822;51.000;5.874;2022-08-04T10:54:13;43.03;;;39.92;;
11531;SDS011;5822;51.000;5.874;2022-08-04T10:56:48;41.40;;;38.22;;
11531;SDS011;5822;51.000;5.874;2022-08-04T10:59:20;46.70;;;43.45;;
11531;SDS011;5822;51.000;5.874;2022-08-04T11:02:19;50.17;;;46.55;;
11531;SDS011;5822;51.000;5.874;2022-08-04T11:05:20;52.88;;;49.33;;
11531;SDS011;5822;51.000;5.874;2022-08-04T11:07:51;53.28;;;49.58;;
11531;SDS011;5822;51.000;5.874;2022-08-04T11:10:23;49.50;;;46.20;;
11531;SDS011;5822;51.000;5.874;2022-08-04T11:12:54;50.78;;;47.28;;
11531;SDS011;5822;51.000;5.874;2022-08-04T11:15:31;52.70;;;49.20;;
11531;SDS011;5822;51.000;5.874;2022-08-04T11:18:01;51.67;;;48.42;;
11531;SDS011;5822;51.000;5.874;2022-08-04T11:20:34;50.30;;;46.80;;
11531;SDS011;5822;51.000;5.874;2022-08-04T11:29:11;41.75;;;38.65;;
11531;SDS011;5822;51.000;5.874;2022-08-04T11:31:20;40.80;;;37.90;;
11531;SDS011;5822;51.000;5.874;2022-08-04T11:34:03;43.88;;;40.88;;
11531;SDS011;5822;51.000;5.874;2022-08-04T11:42:17;49.67;;;46.42;;
11531;SDS011;5822;51.000;5.874;2022-08-04T11:47:47;51.45;;;48.05;;
11531;SDS011;5822;51.000;5.874;2022-08-04T11:53:02;51.28;;;47.78;;
11531;SDS011;5822;51.000;5.874;2022-08-04T11:55:29;41.05;;;38.08;;
11531;SDS011;5822;51.000;5.874;2022-08-04T11:57:56;41.45;;;38.47;;
11531;SDS011;5822;51.000;5.874;2022-08-04T12:00:23;41.28;;;38.42;;
11531;SDS011;5822;51.000;5.874;2022-08-04T12:03:00;47.45;;;44.35;;
11531;SDS011;5822;51.000;5.874;2022-08-04T12:05:50;55.28;;;51.47;;
11531;SDS011;5822;51.000;5.874;2022-08-04T12:08:53;56.83;;;52.97;;
11531;SDS011;5822;51.000;5.874;2022-08-04T12:11:29;53.75;;;50.13;;
11531;SDS011;5822;51.000;5.874;2022-08-04T12:17:00;55.25;;;51.55;;
11531;SDS011;5822;51.000;5.874;2022-08-04T12:19:29;53.42;;;49.92;;
11531;SDS011;5822;51.000;5.874;2022-08-04T12:22:34;51.33;;;47.85;;
11531;SDS011;5822;51.000;5.874;2022-08-04T12:25:06;51.20;;;47.70;;
11531;SDS011;5822;51.000;5.874;2022-08-04T12:27:39;40.85;;;38.00;;
11531;SDS011;5822;51.000;5.874;2022-08-04T12:30:12;42.40;;;39.28;;
11531;SDS011;5822;51.000;5.874;2022-08-04T12:38:06;51.90;;;48.30;;
11531;SDS011;5822;51.000;5.874;2022-08-04T12:40:44;53.92;;;50.40;;
11531;SDS011;5822;51.000;5.874;2022-08-04T12:43:18;56.53;;;52.83;;
11531;SDS011;5822;51.000;5.874;2022-08-04T12:46:06;56.63;;;52.92;;
11531;SDS011;5822;51.000;5.874;2022-08-04T12:48:49;57.67;;;53.88;;
11531;SDS011;5822;51.000;5.874;2022-08-04T12:51:16;55.53;;;51.80;;
11531;SDS011;5822;51.000;5.874;2022-08-04T12:53:44;55.85;;;52.20;;
11531;SDS011;5822;51.000;5.874;2022-08-04T12:56:12;55.45;;;51.85;;
11531;SDS011;5822;51.000;5.874;2022-08-04T12:58:40;55.28;;;51.45;;
11531;SDS011;5822;51.000;5.874;2022-08-04T13:01:11;54.75;;;51.15;;
11531;SDS011;5822;51.000;5.874;2022-08-04T13:03:44;51.53;;;48.10;;
11531;SDS011;5822;51.000;5.874;2022-08-04T13:06:14;50.88;;;47.58;;
11531;SDS011;5822;51.000;5.874;2022-08-04T13:08:40;41.45;;;38.15;;
11531;SDS011;5822;51.000;5.874;2022-08-04T13:11:09;41.10;;;38.20;;
11531;SDS011;5822;51.000;5.874;2022-08-04T13:13:37;33.90;;;31.15;;
11531;SDS011;5822;51.000;5.874;2022-08-04T13:16:05;37.47;;;34.45;;
11531;SDS011;5822;51.000;5.874;2022-08-04T13:18:33;41.97;;;38.97;;
11531;SDS011;5822;51.000;5.874;2022-08-04T13:21:14;43.50;;;40.50;;
11531;SDS011;5822;51.000;5.874;2022-08-04T13:23:42;44.28;;;41.28;;
11531;SDS011;5822;51.000;5.874;2022-08-04T13:26:10;51.45;;;48.05;;
11531;SDS011;5822;51.000;5.874;2022-08-04T13:28:39;48.13;;;44.80;;
11531;SDS011;5822;51.000;5.874;2022-08-04T13:31:07;45.03;;;42.03;;
11531;SDS011;5822;51.000;5.874;2022-08-04T13:33:42;44.17;;;41.17;;
11531;SDS011;5822;51.000;5.874;2022-08-04T13:36:10;47.20;;;44.10;;
11531;SDS011;5822;51.000;5.874;2022-08-04T13:38:38;46.55;;;43.35;;
11531;SDS011;5822;51.000;5.874;2022-08-04T13:41:10;42.65;;;39.75;;
11531;SDS011;5822;51.000;5.874;2022-08-04T13:43:43;29.92;;;27.33;;
11531;SDS011;5822;51.000;5.874;2022-08-04T13:46:24;28.92;;;26.58;;
11531;SDS011;5822;51.000;5.874;2022-08-04T13:48:52;30.00;;;27.67;;
11531;SDS011;5822;51.000;5.874;2022-08-04T13:51:19;38.90;;;36.13;;
11531;SDS011;5822;51.000;5.874;2022-08-04T13:53:53;39.92;;;37.10;;
11531;SDS011;5822;51.000;5.874;2022-08-04T13:56:21;41.97;;;39.22;;
11531;SDS011;5822;51.000;5.874;2022-08-04T13:58:48;42.88;;;40.05;;
11531;SDS011;5822;51.000;5.874;2022-08-04T14:01:21;41.88;;;39.03;;
11531;SDS011;5822;51.000;5.874;2022-08-04T14:06:15;40.42;;;37.58;;
11531;SDS011;5822;51.000;5.874;2022-08-04T14:08:48;42.60;;;39.70;;
11531;SDS011;5822;51.000;5.874;2022-08-04T14:14:17;42.25;;;39.35;;
11531;SDS011;5822;51.000;5.874;2022-08-04T14:17:00;39.45;;;36.65;;
11531;SDS011;5822;51.000;5.874;2022-08-04T14:25:03;31.55;;;28.70;;
11531;SDS011;5822;51.000;5.874;2022-08-04T14:27:48;42.53;;;39.53;;
11531;SDS011;5822;51.000;5.874;2022-08-04T14:32:55;42.47;;;39.67;;
11531;SDS011;5822;51.000;5.874;2022-08-04T14:35:21;47.47;;;44.22;;
11531;SDS011;5822;51.000;5.874;2022-08-04T14:37:54;44.97;;;41.97;;
11531;SDS011;5822;51.000;5.874;2022-08-04T14:40:28;46.08;;;42.78;;
11531;SDS011;5822;51.000;5.874;2022-08-04T14:42:56;45.50;;;42.25;;
11531;SDS011;5822;51.000;5.874;2022-08-04T14:45:32;46.75;;;43.55;;
11531;SDS011;5822;51.000;5.874;2022-08-04T14:48:00;45.22;;;42.17;;
11531;SDS011;5822;51.000;5.874;2022-08-04T14:53:05;44.17;;;41.10;;
11531;SDS011;5822;51.000;5.874;2022-08-04T14:55:35;43.58;;;40.47;;
11531;SDS011;5822;51.000;5.874;2022-08-04T14:58:02;39.83;;;36.75;;
11531;SDS011;5822;51.000;5.874;2022-08-04T15:00:29;41.38;;;38.58;;
11531;SDS011;5822;51.000;5.874;2022-08-04T15:03:01;39.00;;;36.17;;
11531;SDS011;5822;51.000;5.874;2022-08-04T15:05:38;42.00;;;39.10;;
11531;SDS011;5822;51.000;5.874;2022-08-04T15:08:06;41.35;;;38.40;;
11531;SDS011;5822;51.000;5.874;2022-08-04T15:10:32;43.90;;;40.75;;
11531;SDS011;5822;51.000;5.874;2022-08-04T15:12:58;45.00;;;41.80;;
11531;SDS011;5822;51.000;5.874;2022-08-04T15:15:26;45.17;;;42.00;;
11531;SDS011;5822;51.000;5.874;2022-08-04T15:17:53;46.13;;;42.65;;
11531;SDS011;5822;51.000;5.874;2022-08-04T15:20:19;49.22;;;45.80;;
11531;SDS011;5822;51.000;5.874;2022-08-04T15:22:45;47.28;;;43.65;;
11531;SDS011;5822;51.000;5.874;2022-08-04T15:25:11;45.78;;;42.67;;
11531;SDS011;5822;51.000;5.874;2022-08-04T15:27:38;44.88;;;41.58;;
11531;SDS011;5822;51.000;5.874;2022-08-04T15:30:08;44.50;;;41.50;;
11531;SDS011;5822;51.000;5.874;2022-08-04T15:32:38;42.60;;;39.60;;
11531;SDS011;5822;51.000;5.874;2022-08-04T15:35:11;44.05;;;40.90;;
11531;SDS011;5822;51.000;5.874;2022-08-04T15:40:46;30.17;;;27.52;;
11531;SDS011;5822;51.000;5.874;2022-08-04T15:43:36;28.63;;;25.73;;
11531;SDS011;5822;51.000;5.874;2022-08-04T15:46:36;35.35;;;32.40;;
11531;SDS011;5822;51.000;5.874;2022-08-04T15:49:20;39.45;;;36.40;;
11531;SDS011;5822;51.000;5.874;2022-08-04T15:51:57;44.38;;;41.35;;
11531;SDS011;5822;51.000;5.874;2022-08-04T15:54:24;44.60;;;41.60;;
11531;SDS011;5822;51.000;5.874;2022-08-04T15:56:50;39.58;;;36.70;;
11531;SDS011;5822;51.000;5.874;2022-08-04T15:59:54;38.60;;;35.80;;
11531;SDS011;5822;51.000;5.874;2022-08-04T16:10:35;45.35;;;42.35;;
11531;SDS011;5822;51.000;5.874;2022-08-04T16:13:06;45.72;;;42.72;;
11531;SDS011;5822;51.000;5.874;2022-08-04T16:15:40;45.20;;;41.92;;
11531;SDS011;5822;51.000;5.874;2022-08-04T16:20:55;42.35;;;39.25;;
11531;SDS011;5822;51.000;5.874;2022-08-04T16:34:30;55.00;;;51.47;;
11531;SDS011;5822;51.000;5.874;2022-08-04T16:36:57;55.17;;;51.85;;
11531;SDS011;5822;51.000;5.874;2022-08-04T16:39:24;49.47;;;46.28;;
11531;SDS011;5822;51.000;5.874;2022-08-04T16:41:50;55.80;;;51.75;;
11531;SDS011;5822;51.000;5.874;2022-08-04T16:44:36;47.00;;;43.80;;
11531;SDS011;5822;51.000;5.874;2022-08-04T16:47:05;34.10;;;31.50;;
11531;SDS011;5822;51.000;5.874;2022-08-04T16:49:32;34.63;;;32.03;;
11531;SDS011;5822;51.000;5.874;2022-08-04T16:52:03;39.88;;;36.97;;
11531;SDS011;5822;51.000;5.874;2022-08-04T16:54:30;48.53;;;45.28;;
11531;SDS011;5822;51.000;5.874;2022-08-04T16:57:00;43.53;;;40.53;;
11531;SDS011;5822;51.000;5.874;2022-08-04T16:59:32;51.55;;;48.25;;
11531;SDS011;5822;51.000;5.874;2022-08-04T17:01:58;50.60;;;47.40;;
11531;SDS011;5822;51.000;5.874;2022-08-04T17:04:31;55.63;;;52.03;;
11531;SDS011;5822;51.000;5.874;2022-08-04T17:07:01;55.63;;;52.10;;
11531;SDS011;5822;51.000;5.874;2022-08-04T17:09:28;50.30;;;47.10;;
11531;SDS011;5822;51.000;5.874;2022-08-04T17:11:55;49.65;;;46.35;;
11531;SDS011;5822;51.000;5.874;2022-08-04T17:14:26;52.20;;;48.90;;
11531;SDS011;5822;51.000;5.874;2022-08-04T17:16:56;49.95;;;46.83;;
11531;SDS011;5822;51.000;5.874;2022-08-04T17:19:23;35.70;;;32.92;;
11531;SDS011;5822;51.000;5.874;2022-08-04T17:21:49;34.25;;;31.73;;
11531;SDS011;5822;51.000;5.874;2022-08-04T17:24:15;33.45;;;30.85;;
11531;SDS011;5822;51.000;5.874;2022-08-04T17:26:41;45.88;;;42.67;;
11531;SDS011;5822;51.000;5.874;2022-08-04T17:29:08;45.35;;;42.22;;
11531;SDS011;5822;51.000;5.874;2022-08-04T17:31:34;46.13;;;43.03;;
11531;SDS011;5822;51.000;5.874;2022-08-04T17:34:08;47.20;;;43.90;;
11531;SDS011;5822;51.000;5.874;2022-08-04T17:36:38;51.63;;;48.33;;
11531;SDS011;5822;51.000;5.874;2022-08-04T17:39:11;49.58;;;46.38;;
11531;SDS011;5822;51.000;5.874;2022-08-04T17:41:41;46.50;;;43.35;;
11531;SDS011;5822;51.000;5.874;2022-08-04T17:44:07;46.10;;;42.90;;
11531;SDS011;5822;51.000;5.874;2022-08-04T17:49:05;47.40;;;44.17;;
11531;SDS011;5822;51.000;5.874;2022-08-04T17:51:45;45.30;;;41.80;;
11531;SDS011;5822;51.000;5.874;2022-08-04T17:54:30;45.97;;;42.80;;
11531;SDS011;5822;51.000;5.874;2022-08-04T17:56:58;34.30;;;31.55;;
11531;SDS011;5822;51.000;5.874;2022-08-04T17:59:39;41.60;;;38.55;;
11531;SDS011;5822;51.000;5.874;2022-08-04T18:02:06;42.92;;;40.03;;
11531;SDS011;5822;51.000;5.874;2022-08-04T18:07:10;50.53;;;47.08;;
11531;SDS011;5822;51.000;5.874;2022-08-04T18:09:40;48.60;;;45.30;;
11531;SDS011;5822;51.000;5.874;2022-08-04T18:14:55;50.25;;;47.05;;
11531;SDS011;5822;51.000;5.874;2022-08-04T18:17:55;50.35;;;47.10;;
11531;SDS011;5822;51.000;5.874;2022-08-04T18:20:15;48.53;;;45.42;;
11531;SDS011;5822;51.000;5.874;2022-08-04T18:22:45;41.95;;;39.05;;
11531;SDS011;5822;51.000;5.874;2022-08-04T18:25:12;33.95;;;31.35;;
11531;SDS011;5822;51.000;5.874;2022-08-04T18:27:46;40.17;;;37.08;;
11531;SDS011;5822;51.000;5.874;2022-08-04T18:30:13;47.63;;;44.38;;
11531;SDS011;5822;51.000;5.874;2022-08-04T18:32:39;45.22;;;42.13;;
11531;SDS011;5822;51.000;5.874;2022-08-04T18:35:06;48.90;;;45.63;;
11531;SDS011;5822;51.000;5.874;2022-08-04T18:37:33;51.20;;;47.90;;
11531;SDS011;5822;51.000;5.874;2022-08-04T18:40:02;53.30;;;49.92;;
11531;SDS011;5822;51.000;5.874;2022-08-04T18:42:29;50.83;;;47.55;;
11531;SDS011;5822;51.000;5.874;2022-08-04T18:44:55;53.38;;;49.97;;
11531;SDS011;5822;51.000;5.874;2022-08-04T18:47:20;52.47;;;49.17;;
11531;SDS011;5822;51.000;5.874;2022-08-04T18:49:48;50.22;;;46.95;;
11531;SDS011;5822;51.000;5.874;2022-08-04T18:52:16;32.35;;;29.75;;
11531;SDS011;5822;51.000;5.874;2022-08-04T18:54:42;32.20;;;29.63;;
11531;SDS011;5822;51.000;5.874;2022-08-04T18:57:07;34.35;;;31.85;;
11531;SDS011;5822;51.000;5.874;2022-08-04T18:59:33;45.78;;;42.70;;
11531;SDS011;5822;51.000;5.874;2022-08-04T19:01:59;50.65;;;47.33;;
11531;SDS011;5822;51.000;5.874;2022-08-04T19:04:24;53.65;;;50.25;;
11531;SDS011;5822;51.000;5.874;2022-08-04T19:06:50;53.20;;;49.55;;
11531;SDS011;5822;51.000;5.874;2022-08-04T19:09:16;60.17;;;56.38;;
11531;SDS011;5822;51.000;5.874;2022-08-04T19:11:42;51.78;;;48.47;;
11531;SDS011;5822;51.000;5.874;2022-08-04T19:14:08;54.38;;;50.83;;
11531;SDS011;5822;51.000;5.874;2022-08-04T19:16:33;54.00;;;50.70;;
11531;SDS011;5822;51.000;5.874;2022-08-04T19:19:00;51.35;;;48.05;;
11531;SDS011;5822;51.000;5.874;2022-08-04T19:21:28;50.28;;;47.15;;
11531;SDS011;5822;51.000;5.874;2022-08-04T19:23:54;32.10;;;29.45;;
11531;SDS011;5822;51.000;5.874;2022-08-04T19:26:20;31.80;;;29.30;;
11531;SDS011;5822;51.000;5.874;2022-08-04T19:28:47;36.83;;;34.03;;
11531;SDS011;5822;51.000;5.874;2022-08-04T19:31:13;42.00;;;39.17;;
11531;SDS011;5822;51.000;5.874;2022-08-04T19:33:39;46.58;;;43.58;;
11531;SDS011;5822;51.000;5.874;2022-08-04T19:36:05;52.00;;;48.60;;